createdAt,value
2018-12-05T00:00:03.222Z,0.00
2018-12-05T00:01:03.229Z,0.00
2018-12-05T00:02:03.239Z,0.00
2018-12-05T00:03:03.248Z,0.00
2018-12-05T00:04:03.280Z,0.00
2018-12-05T00:05:03.268Z,0.00
2018-12-05T00:06:03.278Z,0.00
2018-12-05T00:07:03.293Z,0.00
2018-12-05T00:08:03.301Z,0.00
2018-12-05T00:09:03.309Z,0.00
2018-12-05T00:10:03.319Z,0.00
2018-12-05T00:11:03.333Z,0.00
2018-12-05T00:12:03.346Z,0.00
2018-12-05T00:13:03.354Z,0.00
2018-12-05T00:14:03.359Z,0.00
2018-12-05T00:15:03.421Z,0.00
2018-12-05T00:16:03.382Z,0.00
2018-12-05T00:17:03.389Z,0.00
2018-12-05T00:18:03.397Z,0.00
2018-12-05T00:19:03.410Z,0.00
2018-12-05T00:20:03.422Z,0.00
2018-12-05T00:21:03.429Z,0.00
2018-12-05T00:22:03.441Z,0.00
2018-12-05T00:23:03.451Z,0.00
2018-12-05T00:24:03.459Z,0.00
2018-12-05T00:25:03.472Z,0.00
2018-12-05T00:26:03.480Z,0.00
2018-12-05T00:27:03.498Z,0.00
2018-12-05T00:28:03.499Z,0.00
2018-12-05T00:29:03.510Z,0.00
2018-12-05T00:30:03.522Z,0.00
2018-12-05T00:31:03.532Z,0.00
2018-12-05T00:32:03.543Z,0.00
2018-12-05T00:33:03.550Z,0.00
2018-12-05T00:34:03.560Z,0.00
2018-12-05T00:35:03.570Z,0.00
2018-12-05T00:36:03.580Z,0.00
2018-12-05T00:37:03.593Z,0.00
2018-12-05T00:38:03.601Z,0.00
2018-12-05T00:39:03.612Z,0.00
2018-12-05T00:40:03.622Z,0.00
2018-12-05T00:42:03.641Z,0.00
2018-12-05T00:43:03.653Z,0.00
2018-12-05T00:44:03.660Z,0.00
2018-12-05T00:45:03.671Z,0.00
2018-12-05T00:46:03.706Z,0.00
2018-12-05T00:47:03.691Z,0.00
2018-12-05T00:48:03.724Z,0.00
2018-12-05T00:49:03.712Z,0.00
2018-12-05T00:50:03.720Z,0.00
2018-12-05T00:51:03.734Z,0.00
2018-12-05T00:52:03.742Z,0.00
2018-12-05T00:53:03.754Z,0.00
2018-12-05T00:54:03.762Z,0.00
2018-12-05T00:55:03.779Z,0.00
2018-12-05T00:56:03.785Z,0.00
2018-12-05T00:57:03.796Z,0.00
2018-12-05T00:58:03.803Z,0.00
2018-12-05T00:59:03.815Z,0.00
2018-12-05T01:00:03.823Z,0.00
2018-12-05T01:01:03.838Z,0.00
2018-12-05T01:02:03.843Z,0.00
2018-12-05T01:03:03.862Z,0.00
2018-12-05T01:04:03.864Z,0.00
2018-12-05T01:05:03.882Z,0.00
2018-12-05T01:06:03.889Z,0.00
2018-12-05T01:07:03.896Z,0.00
2018-12-05T01:08:03.912Z,0.00
2018-12-05T01:09:03.918Z,0.00
2018-12-05T01:10:03.925Z,0.00
2018-12-05T01:11:03.936Z,0.00
2018-12-05T01:12:03.944Z,0.00
2018-12-05T01:13:03.957Z,0.00
2018-12-05T01:14:03.966Z,0.00
2018-12-05T01:15:03.967Z,0.00
2018-12-05T01:16:03.977Z,0.00
2018-12-05T01:17:03.988Z,0.00
2018-12-05T01:18:03.997Z,0.00
2018-12-05T01:19:04.013Z,0.00
2018-12-05T01:20:04.019Z,0.00
2018-12-05T01:21:04.031Z,0.00
2018-12-05T01:22:04.038Z,0.00
2018-12-05T01:23:04.050Z,0.00
2018-12-05T01:24:04.061Z,0.00
2018-12-05T01:25:04.069Z,0.00
2018-12-05T01:26:04.081Z,0.00
2018-12-05T01:27:04.089Z,0.00
2018-12-05T01:28:04.104Z,0.00
2018-12-05T01:29:04.109Z,0.00
2018-12-05T01:30:04.118Z,0.00
2018-12-05T01:31:04.134Z,0.00
2018-12-05T01:32:04.144Z,0.00
2018-12-05T01:33:04.153Z,0.00
2018-12-05T01:34:04.161Z,0.00
2018-12-05T01:35:04.169Z,0.00
2018-12-05T01:36:04.179Z,0.00
2018-12-05T01:37:04.191Z,0.00
2018-12-05T01:38:04.199Z,0.00
2018-12-05T01:39:04.210Z,0.00
2018-12-05T01:40:04.218Z,0.00
2018-12-05T01:41:04.229Z,0.00
2018-12-05T01:42:04.239Z,0.00
2018-12-05T01:43:04.252Z,0.00
2018-12-05T01:44:04.258Z,0.00
2018-12-05T01:45:04.272Z,0.00
2018-12-05T01:46:04.279Z,0.00
2018-12-05T01:47:04.290Z,0.00
2018-12-05T01:48:04.299Z,0.00
2018-12-05T01:49:04.312Z,0.00
2018-12-05T01:50:04.324Z,0.00
2018-12-05T01:51:04.340Z,0.00
2018-12-05T01:52:04.339Z,0.00
2018-12-05T01:53:04.350Z,0.00
2018-12-05T01:54:04.360Z,0.00
2018-12-05T01:55:04.370Z,0.00
2018-12-05T01:56:04.387Z,0.00
2018-12-05T01:57:04.393Z,0.00
2018-12-05T01:58:04.400Z,0.00
2018-12-05T01:59:04.426Z,0.00
2018-12-05T02:00:04.421Z,0.00
2018-12-05T02:01:04.439Z,0.00
2018-12-05T02:02:04.441Z,0.00
2018-12-05T02:03:04.453Z,0.00
2018-12-05T02:04:04.471Z,0.00
2018-12-05T02:05:04.473Z,0.00
2018-12-05T02:06:04.483Z,0.00
2018-12-05T02:07:04.493Z,0.00
2018-12-05T02:08:04.510Z,0.00
2018-12-05T02:09:04.514Z,0.00
2018-12-05T02:10:04.573Z,0.00
2018-12-05T02:11:04.897Z,0.00
2018-12-05T02:12:04.542Z,0.00
2018-12-05T02:13:04.553Z,0.00
2018-12-05T02:14:04.564Z,0.00
2018-12-05T02:15:04.575Z,0.00
2018-12-05T02:17:04.765Z,0.00
2018-12-05T02:18:04.631Z,0.00
2018-12-05T02:19:04.615Z,0.00
2018-12-05T02:20:04.628Z,0.00
2018-12-05T02:21:04.636Z,0.00
2018-12-05T02:22:04.645Z,0.00
2018-12-05T02:23:04.666Z,0.00
2018-12-05T02:24:04.665Z,0.00
2018-12-05T02:25:04.675Z,0.00
2018-12-05T02:26:04.688Z,0.00
2018-12-05T02:27:04.699Z,0.00
2018-12-05T02:28:04.706Z,0.00
2018-12-05T02:29:04.718Z,0.00
2018-12-05T02:30:04.729Z,0.00
2018-12-05T02:31:04.737Z,0.00
2018-12-05T02:32:04.783Z,0.00
2018-12-05T02:33:04.767Z,0.00
2018-12-05T02:34:04.766Z,0.00
2018-12-05T02:35:04.778Z,0.00
2018-12-05T02:36:04.796Z,0.00
2018-12-05T02:37:04.799Z,0.00
2018-12-05T02:38:04.807Z,0.00
2018-12-05T02:39:04.817Z,0.00
2018-12-05T02:40:04.831Z,0.00
2018-12-05T02:41:04.840Z,0.00
2018-12-05T02:42:04.848Z,0.00
2018-12-05T02:43:04.858Z,0.00
2018-12-05T02:44:04.868Z,0.00
2018-12-05T02:45:04.894Z,0.00
2018-12-05T02:46:04.889Z,0.00
2018-12-05T02:47:04.899Z,0.00
2018-12-05T02:48:04.907Z,0.00
2018-12-05T02:49:04.917Z,0.00
2018-12-05T02:50:04.935Z,0.00
2018-12-05T02:51:04.939Z,0.00
2018-12-05T02:52:04.951Z,0.00
2018-12-05T02:53:04.960Z,0.00
2018-12-05T02:54:04.968Z,0.00
2018-12-05T02:55:04.980Z,0.00
2018-12-05T02:56:04.992Z,0.00
2018-12-05T02:57:05.000Z,0.00
2018-12-05T02:58:05.014Z,0.00
2018-12-05T02:59:05.020Z,0.00
2018-12-05T03:00:05.029Z,0.00
2018-12-05T03:01:05.042Z,0.00
2018-12-05T03:02:05.059Z,0.00
2018-12-05T03:03:05.067Z,0.00
2018-12-05T03:04:05.086Z,0.00
2018-12-05T03:05:05.083Z,0.00
2018-12-05T03:06:05.089Z,0.00
2018-12-05T03:07:05.101Z,0.00
2018-12-05T03:08:05.115Z,0.00
2018-12-05T03:09:05.119Z,0.00
2018-12-05T03:10:05.128Z,0.00
2018-12-05T03:11:05.146Z,0.00
2018-12-05T03:12:05.187Z,0.00
2018-12-05T03:13:05.163Z,0.00
2018-12-05T03:14:05.177Z,0.00
2018-12-05T03:15:05.191Z,0.00
2018-12-05T03:16:05.190Z,0.00
2018-12-05T03:17:05.203Z,0.00
2018-12-05T03:18:05.215Z,0.00
2018-12-05T03:19:05.218Z,0.00
2018-12-05T03:20:05.471Z,0.00
2018-12-05T03:21:05.242Z,0.00
2018-12-05T03:22:05.249Z,0.00
2018-12-05T03:23:05.259Z,0.00
2018-12-05T03:24:05.269Z,0.00
2018-12-05T03:25:05.279Z,0.00
2018-12-05T03:26:05.293Z,0.00
2018-12-05T03:27:05.298Z,0.00
2018-12-05T03:28:05.312Z,0.00
2018-12-05T03:29:06.808Z,0.00
2018-12-05T03:30:05.337Z,0.00
2018-12-05T03:31:05.345Z,0.00
2018-12-05T03:32:05.362Z,0.00
2018-12-05T03:33:05.364Z,0.00
2018-12-05T03:34:05.372Z,0.00
2018-12-05T03:35:05.437Z,0.00
2018-12-05T03:36:05.391Z,0.00
2018-12-05T03:37:05.396Z,0.00
2018-12-05T03:38:05.406Z,0.00
2018-12-05T03:39:05.422Z,0.00
2018-12-05T03:40:05.440Z,0.00
2018-12-05T03:41:05.437Z,0.00
2018-12-05T03:42:05.452Z,0.00
2018-12-05T03:43:05.460Z,0.00
2018-12-05T03:44:05.466Z,0.00
2018-12-05T03:45:05.476Z,0.00
2018-12-05T03:46:05.495Z,0.00
2018-12-05T03:47:05.503Z,0.00
2018-12-05T03:48:05.508Z,0.00
2018-12-05T03:49:05.526Z,0.00
2018-12-05T03:50:05.531Z,0.00
2018-12-05T03:51:05.537Z,0.00
2018-12-05T03:52:05.551Z,0.00
2018-12-05T03:53:05.561Z,0.00
2018-12-05T03:54:05.566Z,0.00
2018-12-05T03:55:05.574Z,0.00
2018-12-05T03:56:05.585Z,0.00
2018-12-05T03:57:05.604Z,0.00
2018-12-05T03:58:05.605Z,0.00
2018-12-05T03:59:05.641Z,0.00
2018-12-05T04:00:05.648Z,0.00
2018-12-05T04:01:05.634Z,0.00
2018-12-05T04:02:05.651Z,0.00
2018-12-05T04:03:05.656Z,0.00
2018-12-05T04:04:05.666Z,0.00
2018-12-05T04:05:05.678Z,0.00
2018-12-05T04:06:05.687Z,0.00
2018-12-05T04:07:05.697Z,0.00
2018-12-05T04:08:05.716Z,0.00
2018-12-05T04:09:05.711Z,0.00
2018-12-05T04:10:05.738Z,0.00
2018-12-05T04:11:05.736Z,0.00
2018-12-05T04:12:05.744Z,0.00
2018-12-05T04:13:05.751Z,0.00
2018-12-05T04:14:05.760Z,0.00
2018-12-05T04:15:05.769Z,0.00
2018-12-05T04:16:05.788Z,0.00
2018-12-05T04:17:05.793Z,0.00
2018-12-05T04:18:05.815Z,0.00
2018-12-05T04:19:05.814Z,0.00
2018-12-05T04:20:05.818Z,0.00
2018-12-05T04:21:05.828Z,0.00
2018-12-05T04:22:05.841Z,0.00
2018-12-05T04:23:05.850Z,0.00
2018-12-05T04:24:05.858Z,0.00
2018-12-05T04:25:05.873Z,0.00
2018-12-05T04:26:05.879Z,0.00
2018-12-05T04:27:05.889Z,0.00
2018-12-05T04:28:05.904Z,0.00
2018-12-05T04:29:05.926Z,0.00
2018-12-05T04:30:05.917Z,0.00
2018-12-05T04:31:05.941Z,0.00
2018-12-05T04:32:05.951Z,0.00
2018-12-05T04:33:05.961Z,0.00
2018-12-05T04:34:05.955Z,0.00
2018-12-05T04:35:05.975Z,0.00
2018-12-05T04:36:05.980Z,0.00
2018-12-05T04:37:05.985Z,0.00
2018-12-05T04:38:05.998Z,0.00
2018-12-05T04:39:06.005Z,0.00
2018-12-05T04:40:06.320Z,0.00
2018-12-05T04:41:06.025Z,0.00
2018-12-05T04:42:06.033Z,4.00
2018-12-05T04:43:06.050Z,4.00
2018-12-05T04:44:06.082Z,4.00
2018-12-05T04:45:06.065Z,0.00
2018-12-05T04:46:06.075Z,0.00
2018-12-05T04:47:06.087Z,4.00
2018-12-05T04:48:06.089Z,4.00
2018-12-05T04:49:06.114Z,0.00
2018-12-05T04:50:06.113Z,4.00
2018-12-05T04:51:06.121Z,4.00
2018-12-05T04:52:06.141Z,4.00
2018-12-05T04:53:06.143Z,4.00
2018-12-05T04:54:06.149Z,0.00
2018-12-05T04:55:06.159Z,0.00
2018-12-05T04:56:06.174Z,4.00
2018-12-05T04:57:06.179Z,4.00
2018-12-05T04:58:06.209Z,4.00
2018-12-05T04:59:06.201Z,4.00
2018-12-05T05:00:06.212Z,4.00
2018-12-05T05:01:06.221Z,4.00
2018-12-05T05:02:06.242Z,4.00
2018-12-05T05:03:06.240Z,4.00
2018-12-05T05:04:06.270Z,4.00
2018-12-05T05:05:06.258Z,4.00
2018-12-05T05:06:06.280Z,4.00
2018-12-05T05:07:07.145Z,4.00
2018-12-05T05:08:06.284Z,4.00
2018-12-05T05:09:06.308Z,4.00
2018-12-05T05:10:06.309Z,4.00
2018-12-05T05:11:06.321Z,4.00
2018-12-05T05:12:06.327Z,4.00
2018-12-05T05:13:06.335Z,4.00
2018-12-05T05:14:06.342Z,4.00
2018-12-05T05:15:06.364Z,4.00
2018-12-05T05:16:06.372Z,4.00
2018-12-05T05:17:06.371Z,4.00
2018-12-05T05:18:06.384Z,4.00
2018-12-05T05:19:06.395Z,4.00
2018-12-05T05:20:06.415Z,4.00
2018-12-05T05:21:06.423Z,4.00
2018-12-05T05:22:06.425Z,4.00
2018-12-05T05:23:06.534Z,4.00
2018-12-05T05:24:06.441Z,4.00
2018-12-05T05:25:06.451Z,4.00
2018-12-05T05:26:06.475Z,4.00
2018-12-05T05:27:06.482Z,4.00
2018-12-05T05:28:06.483Z,4.00
2018-12-05T05:29:06.490Z,4.00
2018-12-05T05:30:06.502Z,4.00
2018-12-05T05:31:06.511Z,4.00
2018-12-05T05:32:06.555Z,4.00
2018-12-05T05:33:06.536Z,4.00
2018-12-05T05:34:06.546Z,4.00
2018-12-05T05:35:06.551Z,4.00
2018-12-05T05:36:06.566Z,4.00
2018-12-05T05:37:06.567Z,4.00
2018-12-05T05:38:06.574Z,4.00
2018-12-05T05:39:06.640Z,4.00
2018-12-05T05:40:06.612Z,4.00
2018-12-05T05:41:06.602Z,4.00
2018-12-05T05:42:06.619Z,4.00
2018-12-05T05:43:06.659Z,4.00
2018-12-05T05:44:06.633Z,4.00
2018-12-05T05:45:06.652Z,4.00
2018-12-05T05:46:06.666Z,4.00
2018-12-05T05:47:06.674Z,4.00
2018-12-05T05:48:06.726Z,4.00
2018-12-05T05:49:06.694Z,4.00
2018-12-05T05:50:06.691Z,4.00
2018-12-05T05:51:06.699Z,4.00
2018-12-05T05:52:06.721Z,4.00
2018-12-05T05:53:06.719Z,4.00
2018-12-05T05:54:06.728Z,4.00
2018-12-05T05:55:06.742Z,4.00
2018-12-05T05:56:06.848Z,4.00
2018-12-05T05:57:06.782Z,4.00
2018-12-05T05:58:06.766Z,4.00
2018-12-05T05:59:06.779Z,4.00
2018-12-05T06:00:06.791Z,4.00
2018-12-05T06:01:06.799Z,4.00
2018-12-05T06:02:06.813Z,4.00
2018-12-05T06:03:06.816Z,4.00
2018-12-05T06:04:06.849Z,4.00
2018-12-05T06:05:06.832Z,4.00
2018-12-05T06:06:06.896Z,4.00
2018-12-05T06:07:06.861Z,4.00
2018-12-05T06:09:06.884Z,4.00
2018-12-05T06:10:06.887Z,4.00
2018-12-05T06:11:06.946Z,4.00
2018-12-05T06:12:06.906Z,4.00
2018-12-05T06:13:06.912Z,4.00
2018-12-05T06:14:06.924Z,4.00
2018-12-05T06:15:06.932Z,4.00
2018-12-05T06:16:06.940Z,4.00
2018-12-05T06:17:06.951Z,4.00
2018-12-05T06:18:06.957Z,4.00
2018-12-05T06:19:06.985Z,4.00
2018-12-05T06:20:06.994Z,4.00
2018-12-05T06:21:06.999Z,4.00
2018-12-05T06:22:07.000Z,4.00
2018-12-05T06:23:07.008Z,4.00
2018-12-05T06:24:07.021Z,4.00
2018-12-05T06:25:07.040Z,4.00
2018-12-05T06:26:07.041Z,4.00
2018-12-05T06:27:07.051Z,4.00
2018-12-05T06:28:07.063Z,4.00
2018-12-05T06:29:07.069Z,4.00
2018-12-05T06:30:07.078Z,4.00
2018-12-05T06:31:07.085Z,4.00
2018-12-05T06:32:07.093Z,4.00
2018-12-05T06:33:07.165Z,4.00
2018-12-05T06:34:07.135Z,4.00
2018-12-05T06:35:07.124Z,4.00
2018-12-05T06:36:07.133Z,4.00
2018-12-05T06:37:07.145Z,4.00
2018-12-05T06:38:07.153Z,4.00
2018-12-05T06:39:07.163Z,0.00
2018-12-05T06:40:07.175Z,4.00
2018-12-05T06:41:07.189Z,4.00
2018-12-05T06:42:07.191Z,4.00
2018-12-05T06:43:07.200Z,4.00
2018-12-05T06:44:07.228Z,4.00
2018-12-05T06:45:07.228Z,4.00
2018-12-05T06:46:07.232Z,4.00
2018-12-05T06:47:07.239Z,4.00
2018-12-05T06:48:07.255Z,4.00
2018-12-05T06:49:07.372Z,8.00
2018-12-05T06:50:07.367Z,4.00
2018-12-05T06:51:07.278Z,4.00
2018-12-05T06:52:07.286Z,4.00
2018-12-05T06:53:07.602Z,8.00
2018-12-05T06:54:07.314Z,4.00
2018-12-05T06:55:07.323Z,8.00
2018-12-05T06:56:07.329Z,4.00
2018-12-05T06:57:07.335Z,8.00
2018-12-05T06:58:07.345Z,8.00
2018-12-05T06:59:07.364Z,8.00
2018-12-05T07:00:08.273Z,12.00
2018-12-05T07:01:07.380Z,8.00
2018-12-05T07:02:07.398Z,12.00
2018-12-05T07:03:07.397Z,12.00
2018-12-05T07:04:07.409Z,16.00
2018-12-05T07:05:07.410Z,16.00
2018-12-05T07:06:07.428Z,20.00
2018-12-05T07:07:07.446Z,20.00
2018-12-05T07:08:07.443Z,20.00
2018-12-05T07:09:07.482Z,28.00
2018-12-05T07:10:07.469Z,28.00
2018-12-05T07:11:07.471Z,28.00
2018-12-05T07:12:07.496Z,36.00
2018-12-05T07:13:07.498Z,36.00
2018-12-05T07:14:07.503Z,44.00
2018-12-05T07:15:07.530Z,48.00
2018-12-05T07:16:07.517Z,52.00
2018-12-05T07:17:07.542Z,56.00
2018-12-05T07:18:07.538Z,60.00
2018-12-05T07:19:07.568Z,64.00
2018-12-05T07:20:08.435Z,72.00
2018-12-05T07:21:07.572Z,72.00
2018-12-05T07:22:07.591Z,76.00
2018-12-05T07:23:07.621Z,84.00
2018-12-05T07:24:09.032Z,84.00
2018-12-05T07:25:07.605Z,92.00
2018-12-05T07:26:07.621Z,100.00
2018-12-05T07:27:07.626Z,104.00
2018-12-05T07:28:07.747Z,112.00
2018-12-05T07:29:07.641Z,120.00
2018-12-05T07:30:07.658Z,128.00
2018-12-05T07:31:07.664Z,136.00
2018-12-05T07:32:07.671Z,140.00
2018-12-05T07:33:07.681Z,148.00
2018-12-05T07:34:07.785Z,156.00
2018-12-05T07:35:07.719Z,160.00
2018-12-05T07:36:07.775Z,164.00
2018-12-05T07:37:07.843Z,172.00
2018-12-05T07:38:08.438Z,180.00
2018-12-05T07:39:07.738Z,184.00
2018-12-05T07:40:07.753Z,192.00
2018-12-05T07:41:07.760Z,200.00
2018-12-05T07:42:07.780Z,208.00
2018-12-05T07:43:07.822Z,216.00
2018-12-05T07:44:07.793Z,224.00
2018-12-05T07:45:07.801Z,228.00
2018-12-05T07:46:07.814Z,236.00
2018-12-05T07:47:07.814Z,248.00
2018-12-05T07:48:07.826Z,252.00
2018-12-05T07:49:07.835Z,256.00
2018-12-05T07:50:07.935Z,264.00
2018-12-05T07:51:07.857Z,272.00
2018-12-05T07:52:07.866Z,280.00
2018-12-05T07:53:07.897Z,288.00
2018-12-05T07:54:07.885Z,300.00
2018-12-05T07:55:07.895Z,308.00
2018-12-05T07:56:07.908Z,320.00
2018-12-05T07:57:07.920Z,340.00
2018-12-05T07:58:07.968Z,356.00
2018-12-05T07:59:07.938Z,372.00
2018-12-05T08:00:07.959Z,384.00
2018-12-05T08:01:07.959Z,400.00
2018-12-05T08:02:07.967Z,412.00
2018-12-05T08:03:07.973Z,424.00
2018-12-05T08:04:07.986Z,432.00
2018-12-05T08:05:07.989Z,448.00
2018-12-05T08:06:07.998Z,460.00
2018-12-05T08:07:08.043Z,472.00
2018-12-05T08:08:08.016Z,484.00
2018-12-05T08:09:08.038Z,500.00
2018-12-05T08:10:08.034Z,512.00
2018-12-05T08:11:08.044Z,528.00
2018-12-05T08:12:08.052Z,540.00
2018-12-05T08:13:08.062Z,560.00
2018-12-05T08:14:08.077Z,572.00
2018-12-05T08:15:08.082Z,592.00
2018-12-05T08:16:08.102Z,616.00
2018-12-05T08:17:08.100Z,644.00
2018-12-05T08:18:08.119Z,668.00
2018-12-05T08:19:08.122Z,676.00
2018-12-05T08:20:08.129Z,688.00
2018-12-05T08:21:08.141Z,712.00
2018-12-05T08:22:08.150Z,772.00
2018-12-05T08:23:08.168Z,808.00
2018-12-05T08:24:08.193Z,816.00
2018-12-05T08:25:08.184Z,812.00
2018-12-05T08:26:08.196Z,824.00
2018-12-05T08:27:08.209Z,824.00
2018-12-05T08:28:08.217Z,852.00
2018-12-05T08:29:09.204Z,912.00
2018-12-05T08:30:08.391Z,944.00
2018-12-05T08:31:08.237Z,904.00
2018-12-05T08:33:08.345Z,932.00
2018-12-05T08:34:08.269Z,884.00
2018-12-05T08:35:08.291Z,876.00
2018-12-05T08:36:08.288Z,876.00
2018-12-05T08:37:08.297Z,852.00
2018-12-05T08:38:08.308Z,864.00
2018-12-05T08:39:08.318Z,888.00
2018-12-05T08:40:08.328Z,860.00
2018-12-05T08:41:08.375Z,848.00
2018-12-05T08:42:08.361Z,852.00
2018-12-05T08:43:08.357Z,856.00
2018-12-05T08:44:08.384Z,892.00
2018-12-05T08:45:08.380Z,864.00
2018-12-05T08:46:08.412Z,868.00
2018-12-05T08:47:08.396Z,872.00
2018-12-05T08:48:08.410Z,880.00
2018-12-05T08:49:08.416Z,884.00
2018-12-05T08:50:08.448Z,904.00
2018-12-05T08:52:08.458Z,936.00
2018-12-05T08:53:08.457Z,964.00
2018-12-05T08:54:08.472Z,988.00
2018-12-05T08:55:08.476Z,1012.00
2018-12-05T08:56:08.538Z,1032.00
2018-12-05T08:57:08.498Z,1048.00
2018-12-05T08:58:08.508Z,1052.00
2018-12-05T08:59:08.517Z,1052.00
2018-12-05T09:00:08.526Z,1052.00
2018-12-05T09:01:08.537Z,1048.00
2018-12-05T09:02:08.554Z,1052.00
2018-12-05T09:03:08.559Z,1064.00
2018-12-05T09:04:08.583Z,1068.00
2018-12-05T09:05:08.578Z,1064.00
2018-12-05T09:06:08.592Z,1064.00
2018-12-05T09:07:08.602Z,1060.00
2018-12-05T09:08:08.610Z,1060.00
2018-12-05T09:09:08.638Z,1052.00
2018-12-05T09:10:08.629Z,1056.00
2018-12-05T09:11:08.641Z,1044.00
2018-12-05T09:12:08.651Z,1036.00
2018-12-05T09:13:08.660Z,1028.00
2018-12-05T09:14:08.700Z,1020.00
2018-12-05T09:15:08.681Z,1040.00
2018-12-05T09:16:08.689Z,1072.00
2018-12-05T09:17:08.710Z,1112.00
2018-12-05T09:18:08.718Z,1136.00
2018-12-05T09:19:08.794Z,1164.00
2018-12-05T09:20:08.894Z,1184.00
2018-12-05T09:21:08.741Z,1200.00
2018-12-05T09:22:08.753Z,1212.00
2018-12-05T09:23:08.761Z,1236.00
2018-12-05T09:24:08.772Z,1244.00
2018-12-05T09:25:08.783Z,1256.00
2018-12-05T09:27:08.861Z,1268.00
2018-12-05T09:28:08.819Z,1268.00
2018-12-05T09:29:08.822Z,1272.00
2018-12-05T09:30:08.839Z,1280.00
2018-12-05T09:31:08.846Z,1288.00
2018-12-05T09:32:08.855Z,1288.00
2018-12-05T09:33:08.866Z,1284.00
2018-12-05T09:34:08.874Z,1276.00
2018-12-05T09:35:08.885Z,1272.00
2018-12-05T09:36:08.895Z,1252.00
2018-12-05T09:37:08.907Z,1248.00
2018-12-05T09:38:08.915Z,1244.00
2018-12-05T09:39:08.932Z,1236.00
2018-12-05T09:40:08.935Z,1236.00
2018-12-05T09:41:08.947Z,1244.00
2018-12-05T09:42:08.957Z,1252.00
2018-12-05T09:43:08.971Z,1260.00
2018-12-05T09:44:08.977Z,1272.00
2018-12-05T09:45:09.012Z,1284.00
2018-12-05T09:46:09.003Z,1284.00
2018-12-05T09:47:15.732Z,1280.00
2018-12-05T09:48:09.034Z,1280.00
2018-12-05T09:49:09.038Z,1280.00
2018-12-05T09:50:09.060Z,1276.00
2018-12-05T09:51:09.062Z,1272.00
2018-12-05T09:52:09.086Z,1268.00
2018-12-05T09:53:09.279Z,1276.00
2018-12-05T09:54:09.093Z,1288.00
2018-12-05T09:55:09.099Z,1308.00
2018-12-05T09:56:09.100Z,1328.00
2018-12-05T09:57:09.132Z,1360.00
2018-12-05T09:58:09.133Z,1428.00
2018-12-05T09:59:09.229Z,1484.00
2018-12-05T10:00:09.189Z,1524.00
2018-12-05T10:01:09.223Z,1480.00
2018-12-05T10:02:09.205Z,1568.00
2018-12-05T10:03:09.187Z,1620.00
2018-12-05T10:04:09.203Z,1548.00
2018-12-05T10:05:09.208Z,1508.00
2018-12-05T10:06:09.230Z,1396.00
2018-12-05T10:07:09.232Z,1280.00
2018-12-05T10:08:09.252Z,1272.00
2018-12-05T10:09:09.251Z,1252.00
2018-12-05T10:10:09.433Z,1260.00
2018-12-05T10:11:09.260Z,1280.00
2018-12-05T10:12:09.340Z,1300.00
2018-12-05T10:13:09.393Z,1376.00
2018-12-05T10:14:09.333Z,1460.00
2018-12-05T10:15:09.303Z,1528.00
2018-12-05T10:16:09.344Z,1512.00
2018-12-05T10:17:09.388Z,1336.00
2018-12-05T10:18:09.381Z,1316.00
2018-12-05T10:19:09.361Z,1304.00
2018-12-05T10:20:09.369Z,1312.00
2018-12-05T10:21:09.366Z,1320.00
2018-12-05T10:22:09.730Z,1316.00
2018-12-05T10:23:09.481Z,1328.00
2018-12-05T10:24:09.434Z,1336.00
2018-12-05T10:25:09.445Z,1344.00
2018-12-05T10:26:09.498Z,1352.00
2018-12-05T10:27:09.427Z,1360.00
2018-12-05T10:28:09.475Z,1376.00
2018-12-05T10:29:09.517Z,1392.00
2018-12-05T10:30:09.504Z,1400.00
2018-12-05T10:31:09.541Z,1400.00
2018-12-05T10:32:09.503Z,1404.00
2018-12-05T10:33:10.820Z,1448.00
2018-12-05T10:34:09.759Z,1440.00
2018-12-05T10:35:10.116Z,1448.00
2018-12-05T10:36:09.743Z,1444.00
2018-12-05T10:37:09.949Z,1444.00
2018-12-05T10:38:09.542Z,1452.00
2018-12-05T10:39:09.559Z,1456.00
2018-12-05T10:40:10.050Z,1464.00
2018-12-05T10:41:09.575Z,1472.00
2018-12-05T10:42:09.592Z,1492.00
2018-12-05T10:43:09.601Z,1492.00
2018-12-05T10:44:09.606Z,1492.00
2018-12-05T10:45:09.615Z,1492.00
2018-12-05T10:46:09.633Z,1492.00
2018-12-05T10:47:09.637Z,1496.00
2018-12-05T10:48:09.659Z,1504.00
2018-12-05T10:49:09.675Z,1516.00
2018-12-05T10:50:09.675Z,1528.00
2018-12-05T10:51:09.697Z,1536.00
2018-12-05T10:52:09.707Z,1548.00
2018-12-05T10:53:09.760Z,1552.00
2018-12-05T10:54:09.809Z,1548.00
2018-12-05T10:55:09.753Z,1548.00
2018-12-05T10:56:09.737Z,1544.00
2018-12-05T10:57:09.741Z,1532.00
2018-12-05T10:58:09.762Z,1532.00
2018-12-05T10:59:09.841Z,1540.00
2018-12-05T11:00:09.821Z,1540.00
2018-12-05T11:01:09.799Z,1540.00
2018-12-05T11:02:09.795Z,1544.00
2018-12-05T11:03:09.813Z,1556.00
2018-12-05T11:04:09.820Z,1564.00
2018-12-05T11:05:09.830Z,1584.00
2018-12-05T11:06:09.851Z,1588.00
2018-12-05T11:07:09.853Z,1592.00
2018-12-05T11:08:09.859Z,1588.00
2018-12-05T11:09:09.877Z,1580.00
2018-12-05T11:10:09.907Z,1568.00
2018-12-05T11:11:09.896Z,1556.00
2018-12-05T11:12:09.944Z,1548.00
2018-12-05T11:13:09.931Z,1536.00
2018-12-05T11:14:09.929Z,1528.00
2018-12-05T11:15:09.939Z,1536.00
2018-12-05T11:16:09.961Z,1544.00
2018-12-05T11:17:10.014Z,1560.00
2018-12-05T11:18:09.977Z,1572.00
2018-12-05T11:19:10.026Z,1584.00
2018-12-05T11:20:09.994Z,1596.00
2018-12-05T11:21:10.012Z,1600.00
2018-12-05T11:22:10.019Z,1620.00
2018-12-05T11:23:10.073Z,1636.00
2018-12-05T11:24:10.041Z,1644.00
2018-12-05T11:25:10.046Z,1664.00
2018-12-05T11:26:10.057Z,1676.00
2018-12-05T11:27:10.079Z,1692.00
2018-12-05T11:28:10.127Z,1700.00
2018-12-05T11:29:10.102Z,1688.00
2018-12-05T11:30:10.102Z,1648.00
2018-12-05T11:31:10.126Z,1612.00
2018-12-05T11:32:10.142Z,1580.00
2018-12-05T11:33:10.144Z,1568.00
2018-12-05T11:34:10.151Z,1564.00
2018-12-05T11:35:10.698Z,1560.00
2018-12-05T11:36:10.177Z,1544.00
2018-12-05T11:37:10.173Z,1536.00
2018-12-05T11:38:10.186Z,1528.00
2018-12-05T11:39:10.195Z,1520.00
2018-12-05T11:40:10.209Z,1516.00
2018-12-05T11:41:10.220Z,1528.00
2018-12-05T11:42:10.281Z,1568.00
2018-12-05T11:43:10.256Z,1568.00
2018-12-05T11:44:11.130Z,1580.00
2018-12-05T11:45:10.294Z,1596.00
2018-12-05T11:46:10.274Z,1608.00
2018-12-05T11:47:10.290Z,1608.00
2018-12-05T11:48:10.295Z,1612.00
2018-12-05T11:49:10.781Z,1628.00
2018-12-05T11:50:10.566Z,1640.00
2018-12-05T11:52:10.347Z,1680.00
2018-12-05T11:53:10.356Z,1648.00
2018-12-05T11:54:10.375Z,1608.00
2018-12-05T11:55:10.377Z,1564.00
2018-12-05T11:56:10.389Z,1504.00
2018-12-05T11:57:10.410Z,1440.00
2018-12-05T11:58:10.436Z,1364.00
2018-12-05T11:59:10.423Z,1304.00
2018-12-05T12:00:10.437Z,1260.00
2018-12-05T12:02:10.467Z,1232.00
2018-12-05T12:03:10.470Z,1224.00
2018-12-05T12:04:10.478Z,1232.00
2018-12-05T12:05:10.502Z,1212.00
2018-12-05T12:06:10.540Z,1212.00
2018-12-05T12:07:10.514Z,1216.00
2018-12-05T12:08:10.527Z,1224.00
2018-12-05T12:09:10.536Z,1236.00
2018-12-05T12:10:10.548Z,1236.00
2018-12-05T12:11:10.664Z,1208.00
2018-12-05T12:12:10.585Z,1180.00
2018-12-05T12:14:10.593Z,1144.00
2018-12-05T12:15:10.606Z,1140.00
2018-12-05T12:16:10.616Z,1132.00
2018-12-05T12:17:10.647Z,1132.00
2018-12-05T12:18:10.646Z,1144.00
2018-12-05T12:19:10.652Z,1144.00
2018-12-05T12:20:10.660Z,1164.00
2018-12-05T12:21:10.677Z,1172.00
2018-12-05T12:22:10.684Z,1156.00
2018-12-05T12:23:10.740Z,1140.00
2018-12-05T12:24:10.727Z,1120.00
2018-12-05T12:25:10.720Z,1096.00
2018-12-05T12:26:10.731Z,1072.00
2018-12-05T12:27:10.755Z,1052.00
2018-12-05T12:28:10.762Z,1028.00
2018-12-05T12:29:10.770Z,1000.00
2018-12-05T12:30:15.954Z,976.00
2018-12-05T12:31:10.786Z,968.00
2018-12-05T12:32:10.818Z,960.00
2018-12-05T12:33:10.835Z,960.00
2018-12-05T12:34:10.823Z,956.00
2018-12-05T12:35:10.837Z,960.00
2018-12-05T12:36:10.875Z,972.00
2018-12-05T12:37:10.856Z,980.00
2018-12-05T12:38:10.885Z,984.00
2018-12-05T12:39:10.880Z,984.00
2018-12-05T12:40:10.929Z,976.00
2018-12-05T12:41:10.911Z,976.00
2018-12-05T12:42:10.914Z,980.00
2018-12-05T12:43:10.925Z,988.00
2018-12-05T12:44:10.936Z,984.00
2018-12-05T12:45:10.966Z,972.00
2018-12-05T12:46:11.013Z,960.00
2018-12-05T12:47:10.984Z,952.00
2018-12-05T12:48:11.020Z,948.00
2018-12-05T12:49:11.086Z,956.00
2018-12-05T12:50:11.021Z,972.00
2018-12-05T12:51:11.022Z,996.00
2018-12-05T12:52:11.036Z,1012.00
2018-12-05T12:53:11.047Z,1024.00
2018-12-05T12:54:11.078Z,1020.00
2018-12-05T12:56:11.076Z,996.00
2018-12-05T12:57:11.108Z,992.00
2018-12-05T12:58:11.166Z,980.00